sensor_id;sensor_type;location;lat;lon;timestamp;P1;durP1;ratioP1;P2;durP2;ratioP2
72205;SDS011;60111;48.286;7.812;2022-12-07T00:00:03;44.90;;;27.27;;
72205;SDS011;60111;48.286;7.812;2022-12-07T00:02:37;33.33;;;21.37;;
72205;SDS011;60111;48.286;7.812;2022-12-07T00:05:09;29.20;;;17.97;;
72205;SDS011;60111;48.286;7.812;2022-12-07T00:07:42;25.08;;;16.02;;
72205;SDS011;60111;48.286;7.812;2022-12-07T00:10:14;24.67;;;14.17;;
72205;SDS011;60111;48.286;7.812;2022-12-07T00:12:47;26.57;;;16.00;;
72205;SDS011;60111;48.286;7.812;2022-12-07T00:15:20;25.20;;;14.63;;
72205;SDS011;60111;48.286;7.812;2022-12-07T00:17:53;26.80;;;15.58;;
72205;SDS011;60111;48.286;7.812;2022-12-07T00:20:25;29.52;;;17.23;;
72205;SDS011;60111;48.286;7.812;2022-12-07T00:22:58;22.80;;;14.15;;
72205;SDS011;60111;48.286;7.812;2022-12-07T00:25:31;25.75;;;16.00;;
72205;SDS011;60111;48.286;7.812;2022-12-07T00:28:04;22.90;;;14.83;;
72205;SDS011;60111;48.286;7.812;2022-12-07T00:30:37;27.83;;;17.27;;
72205;SDS011;60111;48.286;7.812;2022-12-07T00:33:10;26.82;;;16.70;;
72205;SDS011;60111;48.286;7.812;2022-12-07T00:35:42;26.73;;;16.42;;
72205;SDS011;60111;48.286;7.812;2022-12-07T00:38:15;26.02;;;15.13;;
72205;SDS011;60111;48.286;7.812;2022-12-07T00:40:59;25.05;;;14.80;;
72205;SDS011;60111;48.286;7.812;2022-12-07T00:43:28;26.50;;;15.88;;
72205;SDS011;60111;48.286;7.812;2022-12-07T00:46:01;22.30;;;13.45;;
72205;SDS011;60111;48.286;7.812;2022-12-07T00:48:34;21.35;;;12.70;;
72205;SDS011;60111;48.286;7.812;2022-12-07T00:51:07;25.77;;;15.70;;
72205;SDS011;60111;48.286;7.812;2022-12-07T00:53:41;24.47;;;15.05;;
72205;SDS011;60111;48.286;7.812;2022-12-07T00:56:15;23.00;;;14.53;;
72205;SDS011;60111;48.286;7.812;2022-12-07T00:58:52;24.55;;;14.93;;
72205;SDS011;60111;48.286;7.812;2022-12-07T01:01:29;25.25;;;14.73;;
72205;SDS011;60111;48.286;7.812;2022-12-07T01:04:04;23.10;;;14.55;;
72205;SDS011;60111;48.286;7.812;2022-12-07T01:06:36;21.45;;;14.23;;
72205;SDS011;60111;48.286;7.812;2022-12-07T01:09:10;26.00;;;14.93;;
72205;SDS011;60111;48.286;7.812;2022-12-07T01:11:42;24.60;;;14.83;;
72205;SDS011;60111;48.286;7.812;2022-12-07T01:14:15;28.07;;;18.37;;
72205;SDS011;60111;48.286;7.812;2022-12-07T01:16:47;30.70;;;20.00;;
72205;SDS011;60111;48.286;7.812;2022-12-07T01:19:20;23.10;;;15.60;;
72205;SDS011;60111;48.286;7.812;2022-12-07T01:21:53;28.20;;;17.32;;
72205;SDS011;60111;48.286;7.812;2022-12-07T01:24:25;30.05;;;18.32;;
72205;SDS011;60111;48.286;7.812;2022-12-07T01:26:58;28.92;;;16.52;;
72205;SDS011;60111;48.286;7.812;2022-12-07T01:29:31;31.57;;;17.95;;
72205;SDS011;60111;48.286;7.812;2022-12-07T01:32:03;27.75;;;16.55;;
72205;SDS011;60111;48.286;7.812;2022-12-07T01:34:36;28.17;;;17.10;;
72205;SDS011;60111;48.286;7.812;2022-12-07T01:37:09;22.35;;;14.10;;
72205;SDS011;60111;48.286;7.812;2022-12-07T01:39:41;26.40;;;15.32;;
72205;SDS011;60111;48.286;7.812;2022-12-07T01:42:14;24.40;;;14.93;;
72205;SDS011;60111;48.286;7.812;2022-12-07T01:47:47;28.17;;;15.98;;
72205;SDS011;60111;48.286;7.812;2022-12-07T01:50:24;28.55;;;17.02;;
72205;SDS011;60111;48.286;7.812;2022-12-07T01:52:59;31.77;;;18.37;;
72205;SDS011;60111;48.286;7.812;2022-12-07T01:55:35;30.70;;;17.67;;
72205;SDS011;60111;48.286;7.812;2022-12-07T01:58:10;28.17;;;18.07;;
72205;SDS011;60111;48.286;7.812;2022-12-07T02:00:44;28.83;;;17.27;;
72205;SDS011;60111;48.286;7.812;2022-12-07T02:03:18;27.98;;;16.45;;
72205;SDS011;60111;48.286;7.812;2022-12-07T02:05:52;32.08;;;20.12;;
72205;SDS011;60111;48.286;7.812;2022-12-07T02:08:25;27.90;;;15.50;;
72205;SDS011;60111;48.286;7.812;2022-12-07T02:10:59;32.03;;;18.10;;
72205;SDS011;60111;48.286;7.812;2022-12-07T02:13:37;28.27;;;16.27;;
72205;SDS011;60111;48.286;7.812;2022-12-07T02:19:26;29.23;;;18.13;;
72205;SDS011;60111;48.286;7.812;2022-12-07T02:30:31;24.72;;;15.63;;
72205;SDS011;60111;48.286;7.812;2022-12-07T02:33:05;24.10;;;15.20;;
72205;SDS011;60111;48.286;7.812;2022-12-07T02:35:59;25.37;;;15.33;;
72205;SDS011;60111;48.286;7.812;2022-12-07T02:38:45;26.00;;;15.63;;
72205;SDS011;60111;48.286;7.812;2022-12-07T02:43:59;26.87;;;15.65;;
72205;SDS011;60111;48.286;7.812;2022-12-07T02:46:38;26.77;;;16.62;;
72205;SDS011;60111;48.286;7.812;2022-12-07T02:49:12;24.57;;;14.93;;
72205;SDS011;60111;48.286;7.812;2022-12-07T02:51:46;21.07;;;14.40;;
72205;SDS011;60111;48.286;7.812;2022-12-07T02:54:19;23.73;;;15.10;;
72205;SDS011;60111;48.286;7.812;2022-12-07T02:56:54;25.37;;;14.40;;
72205;SDS011;60111;48.286;7.812;2022-12-07T02:59:34;22.17;;;13.53;;
72205;SDS011;60111;48.286;7.812;2022-12-07T03:08:02;22.82;;;14.50;;
72205;SDS011;60111;48.286;7.812;2022-12-07T03:15:58;27.30;;;16.75;;
72205;SDS011;60111;48.286;7.812;2022-12-07T03:18:41;24.23;;;14.83;;
72205;SDS011;60111;48.286;7.812;2022-12-07T03:21:39;26.00;;;15.85;;
72205;SDS011;60111;48.286;7.812;2022-12-07T03:24:12;28.12;;;16.60;;
72205;SDS011;60111;48.286;7.812;2022-12-07T03:26:46;29.82;;;17.87;;
72205;SDS011;60111;48.286;7.812;2022-12-07T03:29:27;28.83;;;16.60;;
72205;SDS011;60111;48.286;7.812;2022-12-07T03:34:50;25.17;;;15.25;;
72205;SDS011;60111;48.286;7.812;2022-12-07T03:37:38;21.77;;;13.20;;
72205;SDS011;60111;48.286;7.812;2022-12-07T03:43:08;24.70;;;14.93;;
72205;SDS011;60111;48.286;7.812;2022-12-07T03:45:43;26.33;;;15.25;;
72205;SDS011;60111;48.286;7.812;2022-12-07T03:48:22;26.35;;;14.80;;
72205;SDS011;60111;48.286;7.812;2022-12-07T03:51:13;25.48;;;15.43;;
72205;SDS011;60111;48.286;7.812;2022-12-07T03:53:54;21.97;;;13.65;;
72205;SDS011;60111;48.286;7.812;2022-12-07T03:56:27;26.82;;;15.63;;
72205;SDS011;60111;48.286;7.812;2022-12-07T03:59:01;23.50;;;15.23;;
72205;SDS011;60111;48.286;7.812;2022-12-07T04:01:34;22.30;;;14.60;;
72205;SDS011;60111;48.286;7.812;2022-12-07T04:04:07;22.50;;;14.40;;
72205;SDS011;60111;48.286;7.812;2022-12-07T04:06:39;25.00;;;16.00;;
72205;SDS011;60111;48.286;7.812;2022-12-07T04:09:12;19.60;;;12.58;;
72205;SDS011;60111;48.286;7.812;2022-12-07T04:11:45;24.90;;;14.85;;
72205;SDS011;60111;48.286;7.812;2022-12-07T04:14:17;21.52;;;12.75;;
72205;SDS011;60111;48.286;7.812;2022-12-07T04:16:52;23.45;;;13.20;;
72205;SDS011;60111;48.286;7.812;2022-12-07T04:19:30;21.87;;;13.15;;
72205;SDS011;60111;48.286;7.812;2022-12-07T04:22:05;19.35;;;13.05;;
72205;SDS011;60111;48.286;7.812;2022-12-07T04:24:38;26.10;;;15.75;;
72205;SDS011;60111;48.286;7.812;2022-12-07T04:27:11;28.23;;;15.13;;
72205;SDS011;60111;48.286;7.812;2022-12-07T04:29:43;22.37;;;14.10;;
72205;SDS011;60111;48.286;7.812;2022-12-07T04:32:16;24.50;;;15.32;;
72205;SDS011;60111;48.286;7.812;2022-12-07T04:34:48;22.20;;;13.60;;
72205;SDS011;60111;48.286;7.812;2022-12-07T04:37:21;19.15;;;12.95;;
72205;SDS011;60111;48.286;7.812;2022-12-07T04:39:54;20.85;;;13.18;;
72205;SDS011;60111;48.286;7.812;2022-12-07T04:42:27;24.07;;;13.38;;
72205;SDS011;60111;48.286;7.812;2022-12-07T04:44:59;23.15;;;13.62;;
72205;SDS011;60111;48.286;7.812;2022-12-07T04:47:32;22.70;;;13.60;;
72205;SDS011;60111;48.286;7.812;2022-12-07T04:50:05;22.77;;;14.25;;
72205;SDS011;60111;48.286;7.812;2022-12-07T04:52:38;22.63;;;14.33;;
72205;SDS011;60111;48.286;7.812;2022-12-07T04:55:10;17.32;;;11.33;;
72205;SDS011;60111;48.286;7.812;2022-12-07T04:57:43;18.17;;;11.22;;
72205;SDS011;60111;48.286;7.812;2022-12-07T05:00:16;22.15;;;12.93;;
72205;SDS011;60111;48.286;7.812;2022-12-07T05:02:49;22.82;;;14.40;;
72205;SDS011;60111;48.286;7.812;2022-12-07T05:05:21;22.93;;;14.38;;
72205;SDS011;60111;48.286;7.812;2022-12-07T05:07:55;20.02;;;12.70;;
72205;SDS011;60111;48.286;7.812;2022-12-07T05:10:27;17.77;;;11.93;;
72205;SDS011;60111;48.286;7.812;2022-12-07T05:13:00;20.95;;;13.10;;
72205;SDS011;60111;48.286;7.812;2022-12-07T05:15:32;18.62;;;12.40;;
72205;SDS011;60111;48.286;7.812;2022-12-07T05:18:05;21.30;;;14.43;;
72205;SDS011;60111;48.286;7.812;2022-12-07T05:20:38;21.82;;;14.10;;
72205;SDS011;60111;48.286;7.812;2022-12-07T05:23:12;21.12;;;13.85;;
72205;SDS011;60111;48.286;7.812;2022-12-07T05:25:44;20.23;;;13.15;;
72205;SDS011;60111;48.286;7.812;2022-12-07T05:28:18;20.70;;;12.88;;
72205;SDS011;60111;48.286;7.812;2022-12-07T05:30:51;16.75;;;10.75;;
72205;SDS011;60111;48.286;7.812;2022-12-07T05:33:23;15.55;;;10.72;;
72205;SDS011;60111;48.286;7.812;2022-12-07T05:35:56;18.17;;;11.37;;
72205;SDS011;60111;48.286;7.812;2022-12-07T05:38:28;17.15;;;10.55;;
72205;SDS011;60111;48.286;7.812;2022-12-07T05:41:01;18.37;;;12.37;;
72205;SDS011;60111;48.286;7.812;2022-12-07T05:46:07;19.80;;;12.05;;
72205;SDS011;60111;48.286;7.812;2022-12-07T05:48:40;19.67;;;11.43;;
72205;SDS011;60111;48.286;7.812;2022-12-07T05:51:12;17.02;;;11.20;;
72205;SDS011;60111;48.286;7.812;2022-12-07T05:53:45;20.92;;;12.73;;
72205;SDS011;60111;48.286;7.812;2022-12-07T05:56:18;18.80;;;12.33;;
72205;SDS011;60111;48.286;7.812;2022-12-07T05:58:51;16.57;;;11.60;;
72205;SDS011;60111;48.286;7.812;2022-12-07T06:01:41;15.85;;;10.70;;
72205;SDS011;60111;48.286;7.812;2022-12-07T06:04:14;16.55;;;10.80;;
72205;SDS011;60111;48.286;7.812;2022-12-07T06:06:47;18.05;;;11.38;;
72205;SDS011;60111;48.286;7.812;2022-12-07T06:09:22;17.42;;;11.40;;
72205;SDS011;60111;48.286;7.812;2022-12-07T06:11:56;18.10;;;11.20;;
72205;SDS011;60111;48.286;7.812;2022-12-07T06:14:46;18.52;;;12.23;;
72205;SDS011;60111;48.286;7.812;2022-12-07T06:17:19;27.48;;;15.43;;
72205;SDS011;60111;48.286;7.812;2022-12-07T06:19:52;25.95;;;16.12;;
72205;SDS011;60111;48.286;7.812;2022-12-07T06:22:24;23.57;;;14.35;;
72205;SDS011;60111;48.286;7.812;2022-12-07T06:24:57;22.77;;;14.83;;
72205;SDS011;60111;48.286;7.812;2022-12-07T06:27:29;21.12;;;13.68;;
72205;SDS011;60111;48.286;7.812;2022-12-07T06:30:03;24.07;;;15.90;;
72205;SDS011;60111;48.286;7.812;2022-12-07T06:32:58;25.37;;;16.20;;
72205;SDS011;60111;48.286;7.812;2022-12-07T06:35:32;24.30;;;15.23;;
72205;SDS011;60111;48.286;7.812;2022-12-07T06:38:05;25.50;;;16.45;;
72205;SDS011;60111;48.286;7.812;2022-12-07T06:40:37;24.82;;;15.40;;
72205;SDS011;60111;48.286;7.812;2022-12-07T06:43:10;20.88;;;12.88;;
72205;SDS011;60111;48.286;7.812;2022-12-07T06:45:43;25.97;;;13.53;;
72205;SDS011;60111;48.286;7.812;2022-12-07T06:48:15;22.55;;;14.83;;
72205;SDS011;60111;48.286;7.812;2022-12-07T06:50:48;24.27;;;14.98;;
72205;SDS011;60111;48.286;7.812;2022-12-07T06:53:22;19.67;;;12.18;;
72205;SDS011;60111;48.286;7.812;2022-12-07T06:55:55;23.47;;;13.35;;
72205;SDS011;60111;48.286;7.812;2022-12-07T06:58:27;21.07;;;13.28;;
72205;SDS011;60111;48.286;7.812;2022-12-07T07:01:00;21.40;;;13.80;;
72205;SDS011;60111;48.286;7.812;2022-12-07T07:03:33;17.70;;;10.93;;
72205;SDS011;60111;48.286;7.812;2022-12-07T07:06:06;25.12;;;14.25;;
72205;SDS011;60111;48.286;7.812;2022-12-07T07:08:39;26.10;;;15.47;;
72205;SDS011;60111;48.286;7.812;2022-12-07T07:11:12;19.53;;;11.73;;
72205;SDS011;60111;48.286;7.812;2022-12-07T07:13:45;19.77;;;11.97;;
72205;SDS011;60111;48.286;7.812;2022-12-07T07:16:17;20.45;;;12.35;;
72205;SDS011;60111;48.286;7.812;2022-12-07T07:18:51;21.35;;;12.75;;
72205;SDS011;60111;48.286;7.812;2022-12-07T07:21:23;19.63;;;12.23;;
72205;SDS011;60111;48.286;7.812;2022-12-07T07:23:56;14.83;;;9.98;;
72205;SDS011;60111;48.286;7.812;2022-12-07T07:26:28;16.42;;;10.35;;
72205;SDS011;60111;48.286;7.812;2022-12-07T07:29:01;16.02;;;10.15;;
72205;SDS011;60111;48.286;7.812;2022-12-07T07:31:34;14.25;;;9.25;;
72205;SDS011;60111;48.286;7.812;2022-12-07T07:34:07;12.67;;;8.83;;
72205;SDS011;60111;48.286;7.812;2022-12-07T07:36:40;16.30;;;9.85;;
72205;SDS011;60111;48.286;7.812;2022-12-07T07:39:13;13.03;;;8.73;;
72205;SDS011;60111;48.286;7.812;2022-12-07T07:41:46;13.15;;;8.65;;
72205;SDS011;60111;48.286;7.812;2022-12-07T07:44:18;14.05;;;9.05;;
72205;SDS011;60111;48.286;7.812;2022-12-07T07:46:51;12.10;;;8.33;;
72205;SDS011;60111;48.286;7.812;2022-12-07T07:49:24;11.60;;;7.92;;
72205;SDS011;60111;48.286;7.812;2022-12-07T07:51:57;12.10;;;8.28;;
72205;SDS011;60111;48.286;7.812;2022-12-07T07:54:30;11.22;;;8.00;;
72205;SDS011;60111;48.286;7.812;2022-12-07T07:57:02;12.88;;;9.15;;
72205;SDS011;60111;48.286;7.812;2022-12-07T07:59:35;19.60;;;12.73;;
72205;SDS011;60111;48.286;7.812;2022-12-07T08:02:14;17.87;;;13.13;;
72205;SDS011;60111;48.286;7.812;2022-12-07T08:04:48;16.12;;;10.23;;
72205;SDS011;60111;48.286;7.812;2022-12-07T08:07:21;15.38;;;9.98;;
72205;SDS011;60111;48.286;7.812;2022-12-07T08:09:54;28.83;;;19.40;;
72205;SDS011;60111;48.286;7.812;2022-12-07T08:12:26;23.20;;;15.77;;
72205;SDS011;60111;48.286;7.812;2022-12-07T08:14:59;23.00;;;15.03;;
72205;SDS011;60111;48.286;7.812;2022-12-07T08:17:32;14.80;;;10.65;;
72205;SDS011;60111;48.286;7.812;2022-12-07T08:20:05;16.30;;;9.45;;
72205;SDS011;60111;48.286;7.812;2022-12-07T08:22:38;13.07;;;8.90;;
72205;SDS011;60111;48.286;7.812;2022-12-07T08:25:11;12.15;;;7.92;;
72205;SDS011;60111;48.286;7.812;2022-12-07T08:27:44;15.35;;;8.98;;
72205;SDS011;60111;48.286;7.812;2022-12-07T08:30:16;13.50;;;8.28;;
72205;SDS011;60111;48.286;7.812;2022-12-07T08:32:51;15.20;;;9.75;;
72205;SDS011;60111;48.286;7.812;2022-12-07T08:35:24;11.78;;;7.83;;
72205;SDS011;60111;48.286;7.812;2022-12-07T08:37:57;14.53;;;9.43;;
72205;SDS011;60111;48.286;7.812;2022-12-07T08:40:30;10.40;;;7.30;;
72205;SDS011;60111;48.286;7.812;2022-12-07T08:43:02;19.82;;;11.85;;
72205;SDS011;60111;48.286;7.812;2022-12-07T08:45:35;21.23;;;12.60;;
72205;SDS011;60111;48.286;7.812;2022-12-07T08:48:08;17.32;;;9.63;;
72205;SDS011;60111;48.286;7.812;2022-12-07T08:50:43;15.10;;;10.00;;
72205;SDS011;60111;48.286;7.812;2022-12-07T08:53:16;13.32;;;9.58;;
72205;SDS011;60111;48.286;7.812;2022-12-07T08:55:49;14.35;;;8.60;;
72205;SDS011;60111;48.286;7.812;2022-12-07T08:58:22;13.85;;;9.98;;
72205;SDS011;60111;48.286;7.812;2022-12-07T09:00:54;13.85;;;9.50;;
72205;SDS011;60111;48.286;7.812;2022-12-07T09:03:27;14.50;;;9.98;;
72205;SDS011;60111;48.286;7.812;2022-12-07T09:06:00;12.37;;;8.85;;
72205;SDS011;60111;48.286;7.812;2022-12-07T09:08:34;15.63;;;9.08;;
72205;SDS011;60111;48.286;7.812;2022-12-07T09:11:08;14.07;;;8.35;;
72205;SDS011;60111;48.286;7.812;2022-12-07T09:13:41;14.10;;;9.15;;
72205;SDS011;60111;48.286;7.812;2022-12-07T09:16:14;12.80;;;9.25;;
72205;SDS011;60111;48.286;7.812;2022-12-07T09:18:46;12.65;;;8.48;;
72205;SDS011;60111;48.286;7.812;2022-12-07T09:21:19;15.10;;;10.70;;
72205;SDS011;60111;48.286;7.812;2022-12-07T09:23:51;15.70;;;10.95;;
72205;SDS011;60111;48.286;7.812;2022-12-07T09:26:24;17.05;;;9.63;;
72205;SDS011;60111;48.286;7.812;2022-12-07T09:28:57;16.45;;;10.23;;
72205;SDS011;60111;48.286;7.812;2022-12-07T09:31:29;20.75;;;11.97;;
72205;SDS011;60111;48.286;7.812;2022-12-07T09:34:02;16.82;;;11.50;;
72205;SDS011;60111;48.286;7.812;2022-12-07T09:36:36;17.85;;;12.70;;
72205;SDS011;60111;48.286;7.812;2022-12-07T09:39:09;17.40;;;11.77;;
72205;SDS011;60111;48.286;7.812;2022-12-07T09:41:42;17.87;;;10.95;;
72205;SDS011;60111;48.286;7.812;2022-12-07T09:44:18;16.02;;;10.70;;
72205;SDS011;60111;48.286;7.812;2022-12-07T09:46:52;17.45;;;11.10;;
72205;SDS011;60111;48.286;7.812;2022-12-07T09:49:25;17.92;;;11.50;;
72205;SDS011;60111;48.286;7.812;2022-12-07T09:54:51;17.82;;;12.00;;
72205;SDS011;60111;48.286;7.812;2022-12-07T09:57:27;17.45;;;11.25;;
72205;SDS011;60111;48.286;7.812;2022-12-07T10:00:07;18.85;;;12.43;;
72205;SDS011;60111;48.286;7.812;2022-12-07T10:02:46;20.52;;;12.90;;
72205;SDS011;60111;48.286;7.812;2022-12-07T10:05:32;20.82;;;13.80;;
72205;SDS011;60111;48.286;7.812;2022-12-07T10:08:03;18.60;;;12.90;;
72205;SDS011;60111;48.286;7.812;2022-12-07T10:10:36;19.52;;;13.45;;
72205;SDS011;60111;48.286;7.812;2022-12-07T10:13:12;19.00;;;13.60;;
72205;SDS011;60111;48.286;7.812;2022-12-07T10:15:48;24.50;;;15.55;;
72205;SDS011;60111;48.286;7.812;2022-12-07T10:18:34;23.42;;;15.00;;
72205;SDS011;60111;48.286;7.812;2022-12-07T10:21:27;24.70;;;14.58;;
72205;SDS011;60111;48.286;7.812;2022-12-07T10:24:04;26.77;;;15.08;;
72205;SDS011;60111;48.286;7.812;2022-12-07T10:26:56;21.37;;;14.30;;
72205;SDS011;60111;48.286;7.812;2022-12-07T10:29:33;21.30;;;13.98;;
72205;SDS011;60111;48.286;7.812;2022-12-07T10:34:49;21.52;;;13.65;;
72205;SDS011;60111;48.286;7.812;2022-12-07T10:37:23;22.77;;;14.03;;
72205;SDS011;60111;48.286;7.812;2022-12-07T10:39:57;25.27;;;15.38;;
72205;SDS011;60111;48.286;7.812;2022-12-07T10:42:31;23.27;;;13.43;;
72205;SDS011;60111;48.286;7.812;2022-12-07T11:01:41;17.50;;;11.67;;
72205;SDS011;60111;48.286;7.812;2022-12-07T11:07:28;17.50;;;11.35;;
72205;SDS011;60111;48.286;7.812;2022-12-07T11:10:10;19.50;;;12.20;;
72205;SDS011;60111;48.286;7.812;2022-12-07T11:12:56;20.75;;;13.03;;
72205;SDS011;60111;48.286;7.812;2022-12-07T11:15:42;16.05;;;11.38;;
72205;SDS011;60111;48.286;7.812;2022-12-07T11:18:34;20.57;;;13.98;;
72205;SDS011;60111;48.286;7.812;2022-12-07T11:21:45;16.83;;;11.23;;
72205;SDS011;60111;48.286;7.812;2022-12-07T11:24:18;13.30;;;10.00;;
72205;SDS011;60111;48.286;7.812;2022-12-07T11:29:36;13.95;;;10.03;;
72205;SDS011;60111;48.286;7.812;2022-12-07T11:32:19;14.60;;;10.40;;
72205;SDS011;60111;48.286;7.812;2022-12-07T11:35:20;18.15;;;11.12;;
72205;SDS011;60111;48.286;7.812;2022-12-07T11:38:13;15.32;;;10.05;;
72205;SDS011;60111;48.286;7.812;2022-12-07T11:40:48;15.10;;;10.23;;
72205;SDS011;60111;48.286;7.812;2022-12-07T11:43:24;16.37;;;10.70;;
72205;SDS011;60111;48.286;7.812;2022-12-07T11:46:03;16.10;;;10.48;;
72205;SDS011;60111;48.286;7.812;2022-12-07T11:48:45;14.35;;;10.25;;
72205;SDS011;60111;48.286;7.812;2022-12-07T11:51:15;15.75;;;10.35;;
72205;SDS011;60111;48.286;7.812;2022-12-07T11:54:03;15.85;;;9.60;;
72205;SDS011;60111;48.286;7.812;2022-12-07T11:56:32;12.55;;;8.88;;
72205;SDS011;60111;48.286;7.812;2022-12-07T11:59:23;13.13;;;9.25;;
72205;SDS011;60111;48.286;7.812;2022-12-07T12:02:00;14.20;;;9.30;;
72205;SDS011;60111;48.286;7.812;2022-12-07T12:04:57;13.68;;;9.00;;
72205;SDS011;60111;48.286;7.812;2022-12-07T12:07:15;13.27;;;8.43;;
72205;SDS011;60111;48.286;7.812;2022-12-07T12:09:53;15.48;;;10.23;;
72205;SDS011;60111;48.286;7.812;2022-12-07T12:15:30;14.30;;;9.85;;
72205;SDS011;60111;48.286;7.812;2022-12-07T12:18:30;19.02;;;12.45;;
72205;SDS011;60111;48.286;7.812;2022-12-07T12:21:25;16.60;;;11.20;;
72205;SDS011;60111;48.286;7.812;2022-12-07T12:24:00;14.28;;;9.60;;
72205;SDS011;60111;48.286;7.812;2022-12-07T12:26:36;14.55;;;10.30;;
72205;SDS011;60111;48.286;7.812;2022-12-07T12:29:20;14.87;;;9.88;;
72205;SDS011;60111;48.286;7.812;2022-12-07T12:32:11;17.17;;;11.83;;
72205;SDS011;60111;48.286;7.812;2022-12-07T12:42:50;17.32;;;11.65;;
72205;SDS011;60111;48.286;7.812;2022-12-07T13:01:54;17.62;;;12.47;;
72205;SDS011;60111;48.286;7.812;2022-12-07T13:10:33;15.32;;;10.25;;
72205;SDS011;60111;48.286;7.812;2022-12-07T13:15:54;14.07;;;9.58;;
72205;SDS011;60111;48.286;7.812;2022-12-07T13:29:12;13.25;;;9.75;;
72205;SDS011;60111;48.286;7.812;2022-12-07T13:31:53;11.15;;;8.33;;
72205;SDS011;60111;48.286;7.812;2022-12-07T13:34:39;13.62;;;10.25;;
72205;SDS011;60111;48.286;7.812;2022-12-07T13:37:14;13.98;;;8.90;;
72205;SDS011;60111;48.286;7.812;2022-12-07T13:39:53;13.65;;;9.75;;
72205;SDS011;60111;48.286;7.812;2022-12-07T13:42:31;13.55;;;9.48;;
72205;SDS011;60111;48.286;7.812;2022-12-07T13:48:00;9.93;;;7.97;;
72205;SDS011;60111;48.286;7.812;2022-12-07T13:50:33;9.33;;;7.65;;
72205;SDS011;60111;48.286;7.812;2022-12-07T13:53:07;13.35;;;9.20;;
72205;SDS011;60111;48.286;7.812;2022-12-07T13:55:45;13.97;;;8.50;;
72205;SDS011;60111;48.286;7.812;2022-12-07T13:58:18;11.68;;;8.60;;
72205;SDS011;60111;48.286;7.812;2022-12-07T14:00:52;11.77;;;8.40;;
72205;SDS011;60111;48.286;7.812;2022-12-07T14:03:29;9.83;;;7.45;;
72205;SDS011;60111;48.286;7.812;2022-12-07T14:06:14;10.70;;;7.87;;
72205;SDS011;60111;48.286;7.812;2022-12-07T14:08:49;12.85;;;8.15;;
72205;SDS011;60111;48.286;7.812;2022-12-07T14:11:22;10.28;;;7.83;;
72205;SDS011;60111;48.286;7.812;2022-12-07T14:14:01;9.03;;;7.00;;
72205;SDS011;60111;48.286;7.812;2022-12-07T14:16:36;9.73;;;7.17;;
72205;SDS011;60111;48.286;7.812;2022-12-07T14:22:27;12.07;;;8.37;;
72205;SDS011;60111;48.286;7.812;2022-12-07T14:25:23;10.32;;;7.83;;
72205;SDS011;60111;48.286;7.812;2022-12-07T14:30:34;8.33;;;6.25;;
72205;SDS011;60111;48.286;7.812;2022-12-07T14:33:04;11.30;;;7.60;;
72205;SDS011;60111;48.286;7.812;2022-12-07T14:35:39;11.63;;;8.23;;
72205;SDS011;60111;48.286;7.812;2022-12-07T14:38:11;10.00;;;7.20;;
72205;SDS011;60111;48.286;7.812;2022-12-07T14:43:54;10.20;;;7.00;;
72205;SDS011;60111;48.286;7.812;2022-12-07T14:46:27;10.32;;;7.70;;
72205;SDS011;60111;48.286;7.812;2022-12-07T14:48:59;10.93;;;7.37;;
72205;SDS011;60111;48.286;7.812;2022-12-07T14:51:32;11.03;;;7.90;;
72205;SDS011;60111;48.286;7.812;2022-12-07T14:54:11;10.68;;;8.15;;
72205;SDS011;60111;48.286;7.812;2022-12-07T14:56:49;12.05;;;9.20;;
72205;SDS011;60111;48.286;7.812;2022-12-07T15:02:17;12.55;;;8.38;;
72205;SDS011;60111;48.286;7.812;2022-12-07T15:04:50;10.72;;;7.83;;
72205;SDS011;60111;48.286;7.812;2022-12-07T15:07:22;13.18;;;8.93;;
72205;SDS011;60111;48.286;7.812;2022-12-07T15:09:56;12.05;;;8.50;;
72205;SDS011;60111;48.286;7.812;2022-12-07T15:12:29;10.75;;;7.55;;
72205;SDS011;60111;48.286;7.812;2022-12-07T15:15:01;13.20;;;9.53;;
72205;SDS011;60111;48.286;7.812;2022-12-07T15:17:34;11.73;;;8.53;;
72205;SDS011;60111;48.286;7.812;2022-12-07T15:20:12;12.90;;;8.73;;
72205;SDS011;60111;48.286;7.812;2022-12-07T15:22:45;10.95;;;8.43;;
72205;SDS011;60111;48.286;7.812;2022-12-07T15:25:17;11.43;;;8.23;;
72205;SDS011;60111;48.286;7.812;2022-12-07T15:27:50;13.48;;;9.20;;
72205;SDS011;60111;48.286;7.812;2022-12-07T15:30:22;13.05;;;9.58;;
72205;SDS011;60111;48.286;7.812;2022-12-07T15:32:55;14.50;;;10.38;;
72205;SDS011;60111;48.286;7.812;2022-12-07T15:35:27;17.55;;;11.90;;
72205;SDS011;60111;48.286;7.812;2022-12-07T15:38:00;14.15;;;9.63;;
72205;SDS011;60111;48.286;7.812;2022-12-07T15:40:33;14.73;;;10.00;;
72205;SDS011;60111;48.286;7.812;2022-12-07T15:43:07;11.90;;;8.40;;
72205;SDS011;60111;48.286;7.812;2022-12-07T15:45:44;18.17;;;11.60;;
72205;SDS011;60111;48.286;7.812;2022-12-07T15:48:19;17.48;;;11.83;;
72205;SDS011;60111;48.286;7.812;2022-12-07T15:50:52;14.60;;;10.03;;
72205;SDS011;60111;48.286;7.812;2022-12-07T15:53:25;12.95;;;9.78;;
72205;SDS011;60111;48.286;7.812;2022-12-07T15:55:57;15.43;;;9.98;;
72205;SDS011;60111;48.286;7.812;2022-12-07T15:58:30;14.68;;;9.55;;
72205;SDS011;60111;48.286;7.812;2022-12-07T16:01:10;16.48;;;11.20;;
72205;SDS011;60111;48.286;7.812;2022-12-07T16:06:35;13.68;;;10.28;;
72205;SDS011;60111;48.286;7.812;2022-12-07T16:09:08;12.80;;;9.28;;
72205;SDS011;60111;48.286;7.812;2022-12-07T16:11:41;15.40;;;10.53;;
72205;SDS011;60111;48.286;7.812;2022-12-07T16:14:14;19.90;;;11.90;;
72205;SDS011;60111;48.286;7.812;2022-12-07T16:16:46;30.75;;;14.28;;
72205;SDS011;60111;48.286;7.812;2022-12-07T16:19:19;19.33;;;10.40;;
72205;SDS011;60111;48.286;7.812;2022-12-07T16:21:52;17.10;;;10.13;;
72205;SDS011;60111;48.286;7.812;2022-12-07T16:24:25;15.45;;;10.00;;
72205;SDS011;60111;48.286;7.812;2022-12-07T16:26:58;17.13;;;11.27;;
72205;SDS011;60111;48.286;7.812;2022-12-07T16:29:31;17.73;;;10.20;;
72205;SDS011;60111;48.286;7.812;2022-12-07T16:32:04;17.25;;;11.30;;
72205;SDS011;60111;48.286;7.812;2022-12-07T16:34:37;24.15;;;13.93;;
72205;SDS011;60111;48.286;7.812;2022-12-07T16:37:10;20.62;;;12.80;;
72205;SDS011;60111;48.286;7.812;2022-12-07T16:39:43;25.25;;;13.88;;
72205;SDS011;60111;48.286;7.812;2022-12-07T16:42:15;23.73;;;13.63;;
72205;SDS011;60111;48.286;7.812;2022-12-07T16:44:48;21.40;;;12.47;;
72205;SDS011;60111;48.286;7.812;2022-12-07T16:47:21;19.57;;;11.60;;
72205;SDS011;60111;48.286;7.812;2022-12-07T16:49:53;17.65;;;11.40;;
72205;SDS011;60111;48.286;7.812;2022-12-07T16:52:26;18.65;;;11.83;;
72205;SDS011;60111;48.286;7.812;2022-12-07T16:54:58;22.75;;;14.13;;
72205;SDS011;60111;48.286;7.812;2022-12-07T16:57:31;22.27;;;14.10;;
72205;SDS011;60111;48.286;7.812;2022-12-07T17:00:04;24.00;;;14.70;;
72205;SDS011;60111;48.286;7.812;2022-12-07T17:02:37;19.12;;;13.20;;
72205;SDS011;60111;48.286;7.812;2022-12-07T17:05:10;17.17;;;11.40;;
72205;SDS011;60111;48.286;7.812;2022-12-07T17:07:42;21.00;;;13.75;;
72205;SDS011;60111;48.286;7.812;2022-12-07T17:10:15;14.75;;;10.60;;
72205;SDS011;60111;48.286;7.812;2022-12-07T17:12:48;16.32;;;10.88;;
72205;SDS011;60111;48.286;7.812;2022-12-07T17:15:22;26.60;;;13.28;;
72205;SDS011;60111;48.286;7.812;2022-12-07T17:17:58;16.97;;;11.50;;
72205;SDS011;60111;48.286;7.812;2022-12-07T17:20:30;17.02;;;10.98;;